Flight Track Log - Related Links

Times and Time Zones

All times are in EDT time to prevent confusion due to time zone crossing. See the DAL268 flight status page for this flight to view local times or setup timezone preferences in your user account.

Time Position Orientation Groundspeed Altitude Reporting Facility
EDT Latitude Longitude Course Direction KTS MPH feet Rate Location/Type
Fri 02:19:24 PM 37.6150 -122.3820 North 11 13  Level FlightAware ADS-B
Fri 02:20:31 PM 37.6160 -122.3810 38° Northeast 15 17 59 Level FlightAware ADS-B
Fri 02:21:01 PM 37.6160 -122.3800 90° East 63 Level FlightAware ADS-B
Fri 02:23:00 PM 37.7970 -122.1864 38° Northeast  Level FlightAware Approximate
Fri 02:24:00 PM 37.8921 -122.0912 38° Northeast  Level FlightAware Approximate
Fri 02:24:12 PM 37.6150 -122.3810 38° Northeast 16 18  Level FlightAware ADS-B
Fri 02:24:37 PM 37.6140 -122.3810 180° South 28 32 82 Level FlightAware ADS-B
Fri 02:25:05 PM 37.6120 -122.3830 218° Southwest 28 32 85 Level FlightAware ADS-B
Fri 02:25:53 PM 37.6100 -122.3840 202° Southwest 26 30 89 Level FlightAware ADS-B
Fri 02:26:37 PM 37.6090 -122.3850 218° Southwest 31 36 96 Level FlightAware ADS-B
Fri 02:27:11 PM 37.6050 -122.3850 180° South 31 36 103 Level FlightAware ADS-B
Fri 02:27:21 PM 37.6060 -122.3830 58° Northeast 26 30 109 Level FlightAware ADS-B
Fri 02:30:00 PM 37.8585 -122.1249 38° Northeast  Level FlightAware Approximate
Fri 02:31:00 PM 37.9537 -122.0297 38° Northeast  Level FlightAware Approximate
Fri 02:31:26 PM 37.6060 -122.3820 38° Northeast  Level FlightAware ADS-B
Fri 02:33:55 PM 37.6070 -122.3810 38° Northeast 2 2 204 Level FlightAware ADS-B
Fri 02:34:00 PM 37.8504 -122.1329 38° Northeast  Level FlightAware Approximate
Fri 02:35:25 PM 37.6070 -122.3800 90° East 30 35  Level FlightAware ADS-B
Fri 02:35:50 PM 37.6180 -122.3740 23° Northeast 150 173 1,091 Level FlightAware ADS-B
Fri 02:36:20 PM 37.6380 -122.3600 29° Northeast 163 188 1,000 1,862 Climbing FlightAware ADS-B
Fri 02:36:48 PM 37.6550 -122.3400 43° Northeast 198 228 1,800 1,607 Climbing FlightAware ADS-B
Fri 02:37:16 PM 37.6740 -122.3150 46° Northeast 232 267 2,500 1,579 Climbing FlightAware ADS-B
Fri 02:37:45 PM 37.6970 -122.2850 46° Northeast 264 304 3,300 2,222 Climbing FlightAware ADS-B
Fri 02:38:10 PM 37.7210 -122.2590 41° Northeast 269 310 4,500 2,780 Climbing FlightAware ADS-B
Fri 02:38:26 PM 37.7400 -122.2550 North 275 316 5,200 3,000 Climbing FlightAware ADS-B
Fri 02:38:54 PM 37.7760 -122.2630 350° North 271 312 6,700 2,571 Climbing FlightAware ADS-B
Fri 02:39:22 PM 37.8100 -122.2560 North 286 329 7,600 2,045 Climbing FlightAware ADS-B
Fri 02:39:38 PM 37.8270 -122.2390 38° Northeast 293 337 8,200 2,571 Climbing FlightAware ADS-B
Fri 02:39:50 PM 37.8400 -122.2240 42° Northeast 294 338 8,800 2,667 Climbing FlightAware ADS-B
Fri 02:40:32 PM 37.8820 -122.1760 42° Northeast 301 346 10,600 1,800 Climbing FlightAware ADS-B
Fri 02:41:10 PM 37.9260 -122.1300 40° Northeast 342 394 11,200 1,186 Climbing FlightAware ADS-B
Fri 02:41:58 PM 37.9870 -122.0610 42° Northeast 381 438 12,300 1,733 Climbing FlightAware ADS-B
Fri 02:42:40 PM 38.0430 -121.9980 42° Northeast 392 451 13,800 2,049 Climbing FlightAware ADS-B
Fri 02:43:20 PM 38.0980 -121.9370 41° Northeast 406 467 15,100 2,000 Climbing FlightAware ADS-B
Fri 02:44:04 PM 38.1620 -121.8660 41° Northeast 416 479 16,600 2,049 Climbing FlightAware ADS-B
Fri 02:44:42 PM 38.2170 -121.8060 41° Northeast 420 483 17,900 1,902 Climbing FlightAware ADS-B
Fri 02:45:26 PM 38.2820 -121.7330 41° Northeast 431 496 19,200 1,744 Climbing FlightAware ADS-B
Fri 02:46:08 PM 38.3470 -121.6600 41° Northeast 443 510 20,400 1,658 Climbing FlightAware ADS-B
Fri 02:46:42 PM 38.3980 -121.6020 42° Northeast 452 520 21,300 1,500 Climbing FlightAware ADS-B
Fri 02:47:28 PM 38.4660 -121.5130 46° Northeast 464 534 22,400 1,395 Climbing FlightAware ADS-B
Fri 02:48:08 PM 38.5190 -121.4230 53° Northeast 474 545 23,300 1,342 Climbing FlightAware ADS-B
Fri 02:48:44 PM 38.5660 -121.3420 53° Northeast 484 557 24,100 1,395 Climbing FlightAware ADS-B
Fri 02:49:34 PM 38.6330 -121.2270 53° Northeast 492 566 25,300 1,400 Climbing FlightAware ADS-B
Fri 02:50:14 PM 38.6870 -121.1330 54° Northeast 498 573 26,200 1,350 Climbing FlightAware ADS-B
Fri 02:50:54 PM 38.7430 -121.0370 53° Northeast 504 580 27,100 1,342 Climbing FlightAware ADS-B
Fri 02:51:30 PM 38.7940 -120.9490 53° Northeast 510 587 27,900 1,216 Climbing FlightAware ADS-B
Fri 02:52:08 PM 38.8450 -120.8590 54° Northeast 515 593 28,600 1,350 Climbing FlightAware ADS-B
Fri 02:52:50 PM 38.9060 -120.7530 53° Northeast 513 590 29,700 1,463 Climbing FlightAware ADS-B
Fri 02:53:30 PM 38.9610 -120.6580 53° Northeast 514 592 30,600 1,301 Climbing FlightAware ADS-B
Fri 02:54:13 PM 39.0230 -120.5520 53° Northeast 514 592 31,500 1,291 Climbing FlightAware ADS-B
Fri 02:54:49 PM 39.0730 -120.4650 53° Northeast 516 594 32,300 1,286 Climbing FlightAware ADS-B
Fri 02:55:37 PM 39.1420 -120.3450 53° Northeast 517 595 33,300 1,213 Climbing FlightAware ADS-B
Fri 02:56:18 PM 39.2000 -120.2430 54° Northeast 516 594 34,100 1,143 Climbing FlightAware ADS-B
Fri 02:57:01 PM 39.2610 -120.1350 54° Northeast 516 594 34,900 1,111 Climbing FlightAware ADS-B
Fri 02:57:39 PM 39.3160 -120.0390 53° Northeast 517 595 35,600 1,050 Climbing FlightAware ADS-B
Fri 02:58:21 PM 39.3740 -119.9360 54° Northeast 518 596 36,300 923 Climbing FlightAware ADS-B
Fri 02:58:57 PM 39.4240 -119.8470 54° Northeast 519 597 36,800 538 Climbing FlightAware ADS-B
Fri 02:59:39 PM 39.4850 -119.7390 54° Northeast 522 601 37,000 150 Climbing FlightAware ADS-B
Fri 03:00:17 PM 39.5380 -119.6450 54° Northeast 524 603 37,000  Level FlightAware ADS-B
Fri 03:00:59 PM 39.5980 -119.5370 54° Northeast 524 603 37,000  Level FlightAware ADS-B
Fri 03:01:39 PM 39.6540 -119.4360 54° Northeast 522 601 37,000  Level FlightAware ADS-B
Fri 03:02:20 PM 39.7110 -119.3330 54° Northeast 522 601 37,000  Level FlightAware ADS-B
Fri 03:03:05 PM 39.7670 -119.2100 59° Northeast 521 600 37,000  Level FlightAware ADS-B
Fri 03:03:45 PM 39.8070 -119.1000 65° Northeast 520 598 37,000  Level FlightAware ADS-B
Fri 03:04:29 PM 39.8540 -118.9730 64° Northeast 521 600 37,000  Level FlightAware ADS-B
Fri 03:05:10 PM 39.8950 -118.8610 64° Northeast 519 597 37,000  Level FlightAware ADS-B
Fri 03:05:45 PM 39.9320 -118.7600 64° Northeast 519 597 37,000  Level FlightAware ADS-B
Fri 03:06:27 PM 39.9740 -118.6400 65° Northeast 519 597 37,000  Level FlightAware ADS-B
Fri 03:07:11 PM 40.0180 -118.5180 65° Northeast 519 597 37,000  Level FlightAware ADS-B
Fri 03:07:43 PM 40.0510 -118.4240 65° Northeast 521 600 37,000  Level FlightAware ADS-B
Fri 03:08:23 PM 40.0910 -118.3110 65° Northeast 523 602 37,000  Level FlightAware ADS-B
Fri 03:09:07 PM 40.1340 -118.1890 65° Northeast 523 602 37,000  Level FlightAware ADS-B
Fri 03:09:39 PM 40.1670 -118.0940 66° East 523 602 37,000  Level FlightAware ADS-B
Fri 03:10:18 PM 40.2010 -117.9990 65° Northeast 523 602 37,000  Level FlightAware ADS-B
Fri 03:11:27 PM 40.2680 -117.8060 65° Northeast 522 601 37,000  Level FlightAware ADS-B
Fri 03:12:15 PM 40.3100 -117.6890 65° Northeast 522 601 37,000  Level FlightAware ADS-B
Fri 03:12:54 PM 40.3440 -117.5930 65° Northeast 522 601 37,000  Level FlightAware ADS-B
Fri 03:13:43 PM 40.3860 -117.4740 65° Northeast 522 601 37,000  Level FlightAware ADS-B
Fri 03:14:19 PM 40.4170 -117.3860 65° Northeast 522 601 37,000  Level FlightAware ADS-B
Fri 03:15:07 PM 40.4590 -117.2680 65° Northeast 522 601 37,000  Level FlightAware ADS-B
Fri 03:15:43 PM 40.4900 -117.1800 65° Northeast 522 601 37,000  Level FlightAware ADS-B
Fri 03:16:31 PM 40.5320 -117.0630 65° Northeast 522 601 37,000  Level FlightAware ADS-B
Fri 03:17:07 PM 40.5630 -116.9750 65° Northeast 522 601 37,000  Level FlightAware ADS-B
Fri 03:17:55 PM 40.6050 -116.8570 65° Northeast 522 601 37,000  Level FlightAware ADS-B
Fri 03:18:31 PM 40.6360 -116.7690 65° Northeast 522 601 37,000  Level FlightAware ADS-B
Fri 03:19:09 PM 40.6690 -116.6760 65° Northeast 522 601 37,000  Level FlightAware ADS-B
Fri 03:19:57 PM 40.7100 -116.5580 65° Northeast 522 601 37,000  Level FlightAware ADS-B
Fri 03:20:20 PM 40.7648 -116.1980 79° East 37,000  Level FlightAware ADS-B
Fri 03:20:24 PM 40.7687 -116.1830 71° East 529 609 37,000  Level FlightAware ADS-B
Fri 03:20:56 PM 40.7943 -116.0870 71° East 529 609 37,000  Level FlightAware ADS-B
Fri 03:21:28 PM 40.8199 -115.9900 71° East 529 609 37,000  Level FlightAware ADS-B
Fri 03:22:15 PM 40.8574 -115.8480 71° East 530 610 37,000  Level FlightAware ADS-B
Fri 03:24:40 PM 40.9730 -115.4040 71° East 527 606 37,000  Level FlightAware ADS-B
Fri 03:25:11 PM 40.9969 -115.3100 71° East 529 609 37,000  Level FlightAware ADS-B
Fri 03:25:42 PM 41.0214 -115.2150 71° East 531 611 37,000  Level FlightAware ADS-B
Fri 03:26:12 PM 41.0448 -115.1230 71° East 529 609 37,000  Level FlightAware ADS-B
Fri 03:26:57 PM 41.0790 -114.9900 71° East 530 610 37,000  Level FlightAware ADS-B
Fri 03:27:10 PM 41.0900 -114.9450 72° East 529 609 37,000  Level FlightAware ADS-B
Fri 03:27:43 PM 41.1156 -114.8440 71° East 531 611 37,000  Level FlightAware ADS-B
Fri 03:28:13 PM 41.1392 -114.7500 72° East 532 612 37,000  Level FlightAware ADS-B
Fri 03:28:44 PM 41.1628 -114.6560 72° East 533 613 37,000  Level FlightAware ADS-B
Fri 03:29:14 PM 41.1862 -114.5620 72° East 534 615 37,000  Level FlightAware ADS-B
Fri 03:29:44 PM 41.2096 -114.4670 72° East 533 613 37,000  Level FlightAware ADS-B
Fri 03:30:14 PM 41.2327 -114.3740 72° East 534 615 37,000  Level FlightAware ADS-B
Fri 03:30:45 PM 41.2559 -114.2800 72° East 533 613 37,000  Level FlightAware ADS-B
Fri 03:31:42 PM 41.2996 -114.1020 72° East 535 616 37,000  Level FlightAware ADS-B
Fri 03:32:12 PM 41.3224 -114.0080 72° East 535 616 37,000  Level FlightAware ADS-B
Fri 03:32:41 PM 41.3442 -113.9180 72° East 535 616 37,000  Level FlightAware ADS-B
Fri 03:33:06 PM 41.3593 -113.8390 76° East 534 615 37,000  Level FlightAware ADS-B
Fri 03:33:32 PM 41.3688 -113.7540 82° East 533 613 37,000  Level FlightAware ADS-B
Fri 03:34:02 PM 41.3762 -113.6550 84° East 535 616 37,000  Level FlightAware ADS-B
Fri 03:34:33 PM 41.3827 -113.5550 85° East 536 617 37,000  Level FlightAware ADS-B
Fri 03:35:03 PM 41.3890 -113.4550 85° East 537 618 37,000  Level FlightAware ADS-B
Fri 03:35:35 PM 41.3954 -113.3530 85° East 536 617 37,000  Level FlightAware ADS-B
Fri 03:36:10 PM 41.4026 -113.2360 85° East 538 619 37,000  Level FlightAware ADS-B
Fri 03:36:41 PM 41.4090 -113.1330 85° East 536 617 37,000  Level FlightAware ADS-B
Fri 03:37:12 PM 41.4150 -113.0340 85° East 533 613 37,000  Level FlightAware ADS-B
Fri 03:37:44 PM 41.4213 -112.9310 85° East 530 610 37,000  Level FlightAware ADS-B
Fri 03:38:14 PM 41.4272 -112.8330 85° East 530 610 37,000  Level FlightAware ADS-B
Fri 03:38:44 PM 41.4331 -112.7340 85° East 532 612 37,000  Level FlightAware ADS-B
Fri 03:39:14 PM 41.4388 -112.6350 86° East 532 612 37,000  Level FlightAware ADS-B
Fri 03:39:47 PM 41.4449 -112.5300 86° East 532 612 37,000  Level FlightAware ADS-B
Fri 03:40:19 PM 41.4508 -112.4260 86° East 532 612 37,000  Level FlightAware ADS-B
Fri 03:40:54 PM 41.4571 -112.3120 86° East 529 609 37,000  Level FlightAware ADS-B
Fri 03:41:25 PM 41.4626 -112.2100 86° East 529 609 37,000  Level FlightAware ADS-B
Fri 03:41:56 PM 41.4679 -112.1120 86° East 529 609 37,000  Level FlightAware ADS-B
Fri 03:42:26 PM 41.4730 -112.0140 86° East 529 609 37,000  Level FlightAware ADS-B
Fri 03:42:56 PM 41.4782 -111.9140 86° East 529 609 37,000  Level FlightAware ADS-B
Fri 03:43:27 PM 41.4832 -111.8160 86° East 530 610 37,000  Level FlightAware ADS-B
Fri 03:44:00 PM 41.4885 -111.7090 86° East 530 610 37,000  Level FlightAware ADS-B
Fri 03:44:31 PM 41.4935 -111.6080 86° East 529 609 37,000  Level FlightAware ADS-B
Fri 03:45:01 PM 41.4982 -111.5100 86° East 529 609 37,000  Level FlightAware ADS-B
Fri 03:45:31 PM 41.5028 -111.4130 86° East 529 609 37,000  Level FlightAware ADS-B
Fri 03:46:02 PM 41.5074 -111.3130 86° East 529 609 37,000  Level FlightAware ADS-B
Fri 03:46:35 PM 41.5124 -111.2050 86° East 528 608 37,000  Level FlightAware ADS-B
Fri 03:47:06 PM 41.5168 -111.1050 87° East 528 608 37,000  Level FlightAware ADS-B
Fri 03:47:40 PM 41.5217 -110.9940 87° East 529 609 37,000  Level FlightAware ADS-B
Fri 03:48:14 PM 41.5265 -110.8830 87° East 528 608 37,000  Level FlightAware ADS-B
Fri 03:48:44 PM 41.5305 -110.7850 87° East 529 609 37,000  Level FlightAware ADS-B
Fri 03:49:22 PM 41.5360 -110.6610 87° East 529 609 37,000  Level FlightAware ADS-B
Fri 03:49:58 PM 41.5400 -110.5440 87° East 529 609 37,000  Level FlightAware ADS-B
Fri 03:50:37 PM 41.5450 -110.4230 87° East 527 606 37,000  Level FlightAware ADS-B
Fri 03:51:59 PM 41.5550 -110.1530 87° East 528 608 37,000  Level FlightAware ADS-B
Fri 03:52:35 PM 41.5590 -110.0390 87° East 527 606 37,000  Level FlightAware ADS-B
Fri 03:53:19 PM 41.5640 -109.8930 87° East 526 605 37,000  Level FlightAware ADS-B
Fri 03:54:03 PM 41.5690 -109.7520 87° East 528 608 37,000  Level FlightAware ADS-B
Fri 03:54:45 PM 41.5730 -109.6140 88° East 529 609 37,000  Level FlightAware ADS-B
Fri 03:55:25 PM 41.5770 -109.4870 88° East 529 609 37,000  Level FlightAware ADS-B
Fri 03:56:08 PM 41.5810 -109.3460 88° East 529 609 37,000  Level FlightAware ADS-B
Fri 03:56:46 PM 41.5850 -109.2230 87° East 529 609 37,000  Level FlightAware ADS-B
Fri 03:57:34 PM 41.5890 -109.0660 88° East 526 605 37,000  Level FlightAware ADS-B
Fri 03:58:18 PM 41.6010 -108.9250 83° East 524 603 37,000  Level FlightAware ADS-B
Fri 03:58:57 PM 41.6160 -108.7990 81° East 526 605 37,000  Level FlightAware ADS-B
Fri 03:59:40 PM 41.6320 -108.6660 81° East 526 605 37,000  Level FlightAware ADS-B
Fri 04:00:32 PM 41.6520 -108.4970 81° East 523 602 37,000  Level FlightAware ADS-B
Fri 04:01:10 PM 41.6660 -108.3760 81° East 523 602 37,000  Level FlightAware ADS-B
Fri 04:01:54 PM 41.6830 -108.2350 81° East 523 602 37,000  Level FlightAware ADS-B
Fri 04:02:38 PM 41.6990 -108.0950 81° East 521 600 37,000  Level FlightAware ADS-B
Fri 04:03:18 PM 41.7130 -107.9670 82° East 523 602 37,000  Level FlightAware ADS-B
Fri 04:04:00 PM 41.7280 -107.8310 82° East 523 602 37,000  Level FlightAware ADS-B
Fri 04:04:41 PM 41.7430 -107.7010 81° East 526 605 37,000  Level FlightAware ADS-B
Fri 04:05:19 PM 41.7550 -107.5760 83° East 530 610 37,000  Level FlightAware ADS-B
Fri 04:05:57 PM 41.7640 -107.4500 84° East 533 613 37,000  Level FlightAware ADS-B
Fri 04:06:39 PM 41.7720 -107.3160 85° East 533 613 37,000  Level FlightAware ADS-B
Fri 04:07:21 PM 41.7810 -107.1780 85° East 533 613 37,000  Level FlightAware ADS-B
Fri 04:07:59 PM 41.7880 -107.0710 85° East 533 613 37,000  Level FlightAware ADS-B
Fri 04:08:35 PM 41.7940 -106.9700 85° East 533 613 37,000  Level FlightAware ADS-B
Fri 04:09:21 PM 41.8030 -106.8410 85° East 533 613 37,000  Level FlightAware ADS-B
Fri 04:09:57 PM 41.8090 -106.7410 85° East 533 613 37,000  Level FlightAware ADS-B
Fri 04:10:45 PM 41.8180 -106.6060 85° East 533 613 37,000 467 Level FlightAware ADS-B
Fri 04:11:27 PM 41.8260 -106.3740 87° East 528 608 37,700 1,157 Climbing FlightAware ADS-B
Fri 04:12:08 PM 41.8340 -106.2380 85° East 519 597 38,600 1,013 Climbing FlightAware ADS-B
Fri 04:12:44 PM 41.8400 -106.1210 86° East 520 598 39,000 308 Climbing FlightAware ADS-B
Fri 04:13:26 PM 41.8480 -105.9880 85° East 516 594 39,000  Level FlightAware ADS-B
Fri 04:14:08 PM 41.8630 -105.8550 81° East 512 589 39,000  Level FlightAware ADS-B
Fri 04:14:42 PM 41.8750 -105.7480 81° East 514 592 39,000  Level FlightAware ADS-B
Fri 04:15:24 PM 41.8910 -105.6170 81° East 511 588 39,000  Level FlightAware ADS-B
Fri 04:16:05 PM 41.9040 -105.5060 81° East 510 587 39,000  Level FlightAware ADS-B
Fri 04:16:52 PM 41.9210 -105.3470 82° East 509 586 39,000  Level FlightAware ADS-B
Fri 04:17:32 PM 41.9360 -105.2190 81° East 514 592 39,000  Level FlightAware ADS-B
Fri 04:17:53 PM 41.9435 -105.1500 82° East 518 596 39,000  Level FlightAware ADS-B
Fri 04:18:25 PM 41.9541 -105.0510 82° East 505 581 39,000  Level FlightAware ADS-B
Fri 04:18:55 PM 41.9642 -104.9590 82° East 498 573 39,000  Level FlightAware ADS-B
Fri 04:19:25 PM 41.9746 -104.8640 82° East 504 580 39,000  Level FlightAware ADS-B
Fri 04:19:56 PM 41.9849 -104.7690 82° East 509 586 39,000  Level FlightAware ADS-B
Fri 04:20:26 PM 41.9951 -104.6740 82° East 510 587 39,000  Level FlightAware ADS-B
Fri 04:20:57 PM 42.0050 -104.5800 82° East 507 583 39,000  Level FlightAware ADS-B
Fri 04:21:27 PM 42.0149 -104.4840 82° East 505 581 39,000  Level FlightAware ADS-B
Fri 04:21:58 PM 42.0247 -104.3910 82° East 507 583 39,000  Level FlightAware ADS-B
Fri 04:22:35 PM 42.0368 -104.2730 82° East 509 586 39,000  Level FlightAware ADS-B
Fri 04:23:06 PM 42.0466 -104.1780 82° East 510 587 39,000  Level FlightAware ADS-B
Fri 04:23:36 PM 42.0561 -104.0840 82° East 510 587 39,000  Level FlightAware ADS-B
Fri 04:24:07 PM 42.0658 -103.9870 82° East 508 585 39,000  Level FlightAware ADS-B
Fri 04:24:37 PM 42.0753 -103.8920 82° East 507 583 39,000  Level FlightAware ADS-B
Fri 04:25:07 PM 42.0846 -103.7980 82° East 509 586 39,000  Level FlightAware ADS-B
Fri 04:25:38 PM 42.0941 -103.7010 82° East 509 586 39,000  Level FlightAware ADS-B
Fri 04:26:09 PM 42.1034 -103.6050 83° East 511 588 39,000  Level FlightAware ADS-B
Fri 04:26:45 PM 42.1144 -103.4910 83° East 513 590 39,000  Level FlightAware ADS-B
Fri 04:27:16 PM 42.1238 -103.3910 83° East 514 592 39,000  Level FlightAware ADS-B
Fri 04:27:47 PM 42.1328 -103.2950 83° East 513 590 39,000  Level FlightAware ADS-B
Fri 04:28:19 PM 42.1423 -103.1950 83° East 513 590 39,000  Level FlightAware ADS-B
Fri 04:28:57 PM 42.1535 -103.0730 83° East 514 592 39,000  Level FlightAware ADS-B
Fri 04:29:28 PM 42.1625 -102.9750 83° East 515 593 39,000  Level FlightAware ADS-B
Fri 04:29:58 PM 42.1711 -102.8790 83° East 514 592 39,000  Level FlightAware ADS-B
Fri 04:30:32 PM 42.1807 -102.7730 83° East 512 589 39,000  Level FlightAware ADS-B
Fri 04:31:07 PM 42.1907 -102.6600 83° East 513 590 39,000  Level FlightAware ADS-B
Fri 04:31:39 PM 42.1995 -102.5590 83° East 516 594 39,000  Level FlightAware ADS-B
Fri 04:32:27 PM 42.2127 -102.4070 83° East 518 596 39,000  Level FlightAware ADS-B
Fri 04:32:57 PM 42.2209 -102.3110 83° East 517 595 39,000  Level FlightAware ADS-B
Fri 04:33:34 PM 42.2309 -102.1930 83° East 517 595 39,000  Level FlightAware ADS-B
Fri 04:34:05 PM 42.2391 -102.0940 84° East 517 595 39,000  Level FlightAware ADS-B
Fri 04:35:07 PM 42.2555 -101.8960 84° East 518 596 39,000  Level FlightAware ADS-B
Fri 04:35:59 PM 42.2675 -101.7581 84° East 517 595 39,000  Level Denver Center
Fri 04:37:02 PM 42.2836 -101.5433 84° East 515 593 39,000  Level Denver Center
Fri 04:38:04 PM 42.2983 -101.3578 84° East 517 595 39,000  Level Denver Center
Fri 04:39:06 PM 42.3144 -101.1428 84° East 515 593 39,000  Level Denver Center
Fri 04:40:08 PM 42.3281 -100.9600 84° East 513 590 39,000  Level Denver Center
Fri 04:41:10 PM 42.3428 -100.7433 85° East 517 595 39,000  Level Denver Center
Fri 04:42:12 PM 42.3569 -100.5569 84° East 519 597 39,000  Level Denver Center
Fri 04:43:14 PM 42.3703 -100.3364 85° East 525 604 39,000  Level Denver Center
Fri 04:44:16 PM 42.3833 -100.1506 85° East 521 600 39,000  Level Denver Center
Fri 04:45:18 PM 42.3953 -99.9600 85° East 528 608 39,000  Level Denver Center
Fri 04:46:20 PM 42.4100 -99.7419 85° East 525 604 39,000  Level Denver Center
Fri 04:47:22 PM 42.4208 -99.5644 85° East 523 602 39,000  Level Denver Center
Fri 04:48:24 PM 42.4350 -99.3331 85° East 515 593 39,000  Level Denver Center
Fri 04:49:26 PM 42.4461 -99.1367 86° East 519 597 39,000  Level Denver Center
Fri 04:50:28 PM 42.4567 -98.9436 86° East 515 593 39,000  Level Denver Center
Fri 04:51:30 PM 42.4667 -98.7508 86° East 512 589 39,000  Level Denver Center
Fri 04:57:47 PM 42.5240 -97.5260 86° East 514 592 39,000  Level FlightAware ADS-B
Fri 04:58:32 PM 42.5300 -97.3810 87° East 513 590 39,000  Level FlightAware ADS-B
Fri 04:59:30 PM 42.5370 -97.1900 87° East 513 590 39,000  Level FlightAware ADS-B
Fri 05:00:14 PM 42.5430 -97.0500 87° East 511 588 39,000  Level FlightAware ADS-B
Fri 05:00:55 PM 42.5470 -96.9240 87° East 509 586 39,000  Level FlightAware ADS-B
Fri 05:01:40 PM 42.5520 -96.7770 87° East 508 585 39,000  Level FlightAware ADS-B
Fri 05:02:14 PM 42.5560 -96.6670 87° East 510 587 39,000  Level FlightAware ADS-B
Fri 05:03:02 PM 42.5610 -96.5150 87° East 515 593 39,000  Level FlightAware ADS-B
Fri 05:03:42 PM 42.5650 -96.3840 88° East 517 595 39,000  Level FlightAware ADS-B
Fri 05:04:25 PM 42.5700 -96.2470 87° East 516 594 39,000  Level FlightAware ADS-B
Fri 05:05:02 PM 42.5730 -96.1270 88° East 515 593 39,000  Level FlightAware ADS-B
Fri 05:05:46 PM 42.5770 -95.9870 88° East 514 592 39,000  Level FlightAware ADS-B
Fri 05:06:32 PM 42.5810 -95.8370 88° East 515 593 39,000  Level FlightAware ADS-B
Fri 05:07:14 PM 42.5840 -95.7020 88° East 517 595 39,000  Level FlightAware ADS-B
Fri 05:07:55 PM 42.5880 -95.5700 88° East 519 597 39,000  Level FlightAware ADS-B
Fri 05:08:39 PM 42.5910 -95.4270 88° East 522 601 39,000  Level FlightAware ADS-B
Fri 05:09:19 PM 42.5940 -95.2960 88° East 520 598 39,000  Level FlightAware ADS-B
Fri 05:10:00 PM 42.5970 -95.1610 88° East 518 596 39,000  Level FlightAware ADS-B
Fri 05:10:44 PM 42.6000 -95.0180 88° East 518 596 39,000  Level FlightAware ADS-B
Fri 05:11:28 PM 42.6020 -94.8840 89° East 513 590 39,000  Level FlightAware ADS-B
Fri 05:12:04 PM 42.6040 -94.7610 89° East 512 589 39,000  Level FlightAware ADS-B
Fri 05:12:42 PM 42.6060 -94.6400 89° East 514 592 39,000  Level FlightAware ADS-B
Fri 05:13:26 PM 42.6080 -94.4990 89° East 514 592 39,000  Level FlightAware ADS-B
Fri 05:14:02 PM 42.6100 -94.3830 89° East 515 593 39,000  Level FlightAware ADS-B
Fri 05:14:51 PM 42.6120 -94.2250 89° East 517 595 39,000  Level FlightAware ADS-B
Fri 05:15:30 PM 42.6130 -94.0970 89° East 516 594 39,000  Level FlightAware ADS-B
Fri 05:16:15 PM 42.6140 -93.9540 89° East 516 594 39,000  Level FlightAware ADS-B
Fri 05:16:55 PM 42.6150 -93.8240 89° East 517 595 39,000  Level FlightAware ADS-B
Fri 05:17:37 PM 42.6160 -93.6900 89° East 516 594 39,000  Level FlightAware ADS-B
Fri 05:18:15 PM 42.6250 -93.5660 84° East 519 597 39,000  Level FlightAware ADS-B
Fri 05:19:03 PM 42.6410 -93.4110 82° East 519 597 39,000  Level FlightAware ADS-B
Fri 05:19:47 PM 42.6570 -93.2680 81° East 516 594 39,000  Level FlightAware ADS-B
Fri 05:20:26 PM 42.6710 -93.1460 81° East 518 596 39,000  Level FlightAware ADS-B
Fri 05:21:07 PM 42.6860 -93.0140 81° East 517 595 39,000  Level FlightAware ADS-B
Fri 05:21:39 PM 42.6970 -92.9120 82° East 515 593 39,000  Level FlightAware ADS-B
Fri 05:22:25 PM 42.7140 -92.7630 81° East 518 596 39,000  Level FlightAware ADS-B
Fri 05:23:05 PM 42.7280 -92.6330 82° East 521 600 39,000  Level FlightAware ADS-B
Fri 05:23:49 PM 42.7430 -92.4940 82° East 522 601 39,000  Level FlightAware ADS-B
Fri 05:24:33 PM 42.7590 -92.3530 81° East 522 601 39,000  Level FlightAware ADS-B
Fri 05:25:09 PM 42.7710 -92.2320 82° East 523 602 39,000  Level FlightAware ADS-B
Fri 05:25:57 PM 42.7870 -92.0800 82° East 523 602 39,000  Level FlightAware ADS-B
Fri 05:26:30 PM 42.7980 -91.9730 82° East 525 604 39,000  Level FlightAware ADS-B
Fri 05:27:14 PM 42.8130 -91.8330 82° East 528 608 39,000  Level FlightAware ADS-B
Fri 05:27:55 PM 42.8270 -91.6950 82° East 529 609 39,000  Level FlightAware ADS-B
Fri 05:28:31 PM 42.8390 -91.5730 82° East 529 609 39,000  Level FlightAware ADS-B
Fri 05:29:11 PM 42.8520 -91.4430 82° East 527 606 39,000  Level FlightAware ADS-B
Fri 05:29:53 PM 42.8650 -91.3050 83° East 524 603 39,000  Level FlightAware ADS-B
Fri 05:30:19 PM 42.8740 -91.2170 82° East 522 601 39,000  Level FlightAware ADS-B
Fri 05:30:59 PM 42.8860 -91.0900 83° East 520 598 39,000  Level FlightAware ADS-B
Fri 05:31:39 PM 42.8980 -90.9590 83° East 520 598 39,000  Level FlightAware ADS-B
Fri 05:32:19 PM 42.9100 -90.8320 83° East 522 601 39,000  Level FlightAware ADS-B
Fri 05:33:03 PM 42.9240 -90.6820 83° East 522 601 39,000  Level FlightAware ADS-B
Fri 05:33:41 PM 42.9340 -90.5630 83° East 518 596 39,000  Level FlightAware ADS-B
Fri 05:34:27 PM 42.9480 -90.4130 83° East 513 590 39,000  Level FlightAware ADS-B
Fri 05:35:08 PM 42.9590 -90.2830 83° East 513 590 39,000  Level FlightAware ADS-B
Fri 05:35:41 PM 42.9680 -90.1820 83° East 515 593 39,000  Level FlightAware ADS-B
Fri 05:36:27 PM 42.9820 -90.0240 83° East 521 600 39,000  Level FlightAware ADS-B
Fri 05:37:08 PM 42.9930 -89.8930 83° East 522 601 39,000  Level FlightAware ADS-B
Fri 05:37:52 PM 43.0050 -89.7470 84° East 521 600 39,000  Level FlightAware ADS-B
Fri 05:38:31 PM 43.0150 -89.6240 84° East 520 598 39,000  Level FlightAware ADS-B
Fri 05:39:11 PM 43.0260 -89.4900 84° East 519 597 39,000  Level FlightAware ADS-B
Fri 05:39:55 PM 43.0380 -89.3470 83° East 525 604 39,000  Level FlightAware ADS-B
Fri 05:40:39 PM 43.0490 -89.2020 84° East 525 604 39,000  Level FlightAware ADS-B
Fri 05:41:20 PM 43.0590 -89.0690 84° East 525 604 39,000  Level FlightAware ADS-B
Fri 05:42:01 PM 43.0700 -88.9320 84° East 525 604 39,000  Level FlightAware ADS-B
Fri 05:42:33 PM 43.0770 -88.8290 85° East 526 605 39,000  Level FlightAware ADS-B
Fri 05:43:13 PM 43.0870 -88.6990 84° East 527 606 39,000  Level FlightAware ADS-B
Fri 05:43:57 PM 43.0980 -88.5480 84° East 529 609 39,000  Level FlightAware ADS-B
Fri 05:44:29 PM 43.1060 -88.4430 84° East 530 610 39,000  Level FlightAware ADS-B
Fri 05:45:11 PM 43.1130 -88.3030 86° East 530 610 39,000  Level FlightAware ADS-B
Fri 05:45:51 PM 43.1050 -88.1670 95° East 531 611 39,000  Level FlightAware ADS-B
Fri 05:46:36 PM 43.0890 -88.0240 99° East 507 583 39,000  Level FlightAware ADS-B
Fri 05:47:14 PM 43.0760 -87.9070 99° East 499 574 39,000  Level FlightAware ADS-B
Fri 05:48:02 PM 43.0590 -87.7540 99° East 508 585 39,000  Level FlightAware ADS-B
Fri 05:48:42 PM 43.0450 -87.6260 98° East 514 592 39,000  Level FlightAware ADS-B
Fri 05:49:19 PM 43.0320 -87.5130 99° East 516 594 39,000  Level FlightAware ADS-B
Fri 05:49:58 PM 43.0170 -87.3850 99° East 519 597 39,000  Level FlightAware ADS-B
Fri 05:50:41 PM 43.0020 -87.2470 98° East 523 602 39,000  Level FlightAware ADS-B
Fri 05:51:16 PM 42.9880 -87.1320 99° East 523 602 39,000  Level FlightAware ADS-B
Fri 05:51:58 PM 42.9720 -86.9910 99° East 520 598 39,000  Level FlightAware ADS-B
Fri 05:52:40 PM 42.9560 -86.8600 99° East 518 596 39,000  Level FlightAware ADS-B
Fri 05:53:20 PM 42.9410 -86.7330 99° East 520 598 39,000  Level FlightAware ADS-B
Fri 05:54:04 PM 42.9230 -86.5870 100° East 520 598 39,000  Level FlightAware ADS-B
Fri 05:54:46 PM 42.9060 -86.4500 100° East 518 596 39,000  Level FlightAware ADS-B
Fri 05:55:28 PM 42.8900 -86.3160 99° East 521 600 39,000  Level FlightAware ADS-B
Fri 05:56:02 PM 42.8760 -86.2050 100° East 523 602 39,000  Level FlightAware ADS-B
Fri 05:56:50 PM 42.8570 -86.0540 100° East 521 600 39,000  Level FlightAware ADS-B
Fri 05:57:34 PM 42.8380 -85.9070 100° East 521 600 39,000  Level FlightAware ADS-B
Fri 05:58:14 PM 42.8210 -85.7770 100° East 520 598 39,000  Level FlightAware ADS-B
Fri 05:58:58 PM 42.8030 -85.6370 100° East 523 602 39,000  Level FlightAware ADS-B
Fri 05:59:38 PM 42.7850 -85.5040 100° East 529 609 39,000  Level FlightAware ADS-B
Fri 06:00:19 PM 42.7690 -85.3760 100° East 523 602 39,000  Level FlightAware ADS-B
Fri 06:01:04 PM 42.7480 -85.2270 101° East 520 598 39,000  Level FlightAware ADS-B
Fri 06:01:48 PM 42.7290 -85.0850 100° East 519 597 39,000  Level FlightAware ADS-B
Fri 06:02:28 PM 42.7120 -84.9590 100° East 521 600 39,000  Level FlightAware ADS-B
Fri 06:03:10 PM 42.6930 -84.8220 101° East 523 602 39,000  Level FlightAware ADS-B
Fri 06:03:46 PM 42.6770 -84.7050 100° East 521 600 39,000  Level FlightAware ADS-B
Fri 06:04:27 PM 42.6590 -84.5760 101° East 519 597 39,000  Level FlightAware ADS-B
Fri 06:05:09 PM 42.6400 -84.4410 101° East 516 594 39,000  Level FlightAware ADS-B
Fri 06:05:42 PM 42.6250 -84.3400 101° East 513 590 39,000  Level FlightAware ADS-B
Fri 06:06:24 PM 42.6070 -84.2090 101° East 511 588 39,000  Level FlightAware ADS-B
Fri 06:07:06 PM 42.5870 -84.0760 102° East 507 583 39,000  Level FlightAware ADS-B
Fri 06:07:43 PM 42.5700 -83.9600 101° East 507 583 39,000  Level FlightAware ADS-B
Fri 06:08:31 PM 42.5480 -83.8110 101° East 509 586 39,000  Level FlightAware ADS-B
Fri 06:09:15 PM 42.5280 -83.6730 101° East 511 588 39,000  Level FlightAware ADS-B
Fri 06:09:55 PM 42.5090 -83.5460 101° East 513 590 39,000  Level FlightAware ADS-B
Fri 06:10:40 PM 42.4880 -83.4060 101° East 515 593 39,000  Level FlightAware ADS-B
Fri 06:11:21 PM 42.4680 -83.2760 102° East 510 587 39,000  Level FlightAware ADS-B
Fri 06:12:01 PM 42.4490 -83.1520 102° East 511 588 39,000  Level FlightAware ADS-B
Fri 06:12:45 PM 42.4280 -83.0150 102° East 511 588 39,000  Level FlightAware ADS-B
Fri 06:13:25 PM 42.4090 -82.8940 102° East 507 583 39,000  Level FlightAware ADS-B
Fri 06:14:03 PM 42.3940 -82.7740 100° East 502 578 39,000  Level FlightAware ADS-B
Fri 06:14:51 PM 42.3810 -82.6210 97° East 501 577 39,000  Level FlightAware ADS-B
Fri 06:15:31 PM 42.3710 -82.5000 96° East 501 577 39,000  Level FlightAware ADS-B
Fri 06:16:13 PM 42.3620 -82.3890 96° East 498 573 39,000  Level FlightAware ADS-B
Fri 06:16:55 PM 42.3480 -82.2400 97° East 496 571 39,000  Level FlightAware ADS-B
Fri 06:17:36 PM 42.3380 -82.1250 97° East 496 571 39,000  Level FlightAware ADS-B
Fri 06:18:15 PM 42.3250 -81.9950 98° East 496 571 39,000  Level FlightAware ADS-B
Fri 06:19:01 PM 42.3130 -81.8630 97° East 499 574 39,000  Level FlightAware ADS-B
Fri 06:19:43 PM 42.2990 -81.7240 98° East 497 572 39,000  Level FlightAware ADS-B
Fri 06:20:25 PM 42.2870 -81.5990 97° East 496 571 39,000  Level FlightAware ADS-B
Fri 06:21:17 PM 42.2710 -81.4360 98° East 496 571 39,000  Level FlightAware ADS-B
Fri 06:22:05 PM 42.2560 -81.2890 98° East 494 568 39,000  Level FlightAware ADS-B
Fri 06:22:47 PM 42.2430 -81.1590 98° East 493 567 39,000  Level FlightAware ADS-B
Fri 06:23:26 PM 42.2320 -81.0440 97° East 492 566 39,000  Level FlightAware ADS-B
Fri 06:24:09 PM 42.2180 -80.9120 98° East 492 566 39,000  Level FlightAware ADS-B
Fri 06:24:50 PM 42.2050 -80.7890 98° East 490 564 39,000  Level FlightAware ADS-B
Fri 06:25:47 PM 42.1880 -80.6240 98° East 490 564 39,000  Level FlightAware ADS-B
Fri 06:26:27 PM 42.1750 -80.5020 98° East 488 562 39,000  Level FlightAware ADS-B
Fri 06:27:07 PM 42.1640 -80.3910 98° East 486 559 39,000  Level FlightAware ADS-B
Fri 06:27:52 PM 42.1490 -80.2510 98° East 482 555 39,000  Level FlightAware ADS-B
Fri 06:28:37 PM 42.1340 -80.1140 98° East 482 555 39,000  Level FlightAware ADS-B
Fri 06:29:17 PM 42.1210 -79.9990 99° East 482 555 39,000  Level FlightAware ADS-B
Fri 06:30:02 PM 42.1060 -79.8630 98° East 479 551 39,000  Level FlightAware ADS-B
Fri 06:30:42 PM 42.0940 -79.7500 98° East 478 550 39,000  Level FlightAware ADS-B
Fri 06:31:22 PM 42.0800 -79.6310 99° East 478 550 39,000  Level FlightAware ADS-B
Fri 06:32:07 PM 42.0660 -79.5010 98° East 478 550 39,000  Level FlightAware ADS-B
Fri 06:32:47 PM 42.0520 -79.3820 99° East 479 551 39,000  Level FlightAware ADS-B
Fri 06:33:27 PM 42.0380 -79.2620 99° East 481 554 39,000  Level FlightAware ADS-B
Fri 06:34:07 PM 42.0240 -79.1430 99° East 481 554 39,000  Level FlightAware ADS-B
Fri 06:34:47 PM 42.0110 -79.0350 99° East 479 551 39,000  Level FlightAware ADS-B
Fri 06:35:34 PM 41.9930 -78.8810 99° East 476 548 39,000  Level FlightAware ADS-B
Fri 06:36:18 PM 41.9780 -78.7540 99° East 474 545 39,000  Level FlightAware ADS-B
Fri 06:37:00 PM 41.9630 -78.6320 99° East 473 544 39,000  Level FlightAware ADS-B
Fri 06:37:42 PM 41.9480 -78.5110 99° East 476 548 39,000  Level FlightAware ADS-B
Fri 06:38:18 PM 41.9350 -78.4040 99° East 476 548 39,000  Level FlightAware ADS-B
Fri 06:39:00 PM 41.9200 -78.2840 99° East 476 548 39,000  Level FlightAware ADS-B
Fri 06:39:48 PM 41.9020 -78.1440 100° East 478 550 39,000  Level FlightAware ADS-B
Fri 06:40:32 PM 41.8860 -78.0130 99° East 478 550 39,000  Level FlightAware ADS-B
Fri 06:41:12 PM 41.8710 -77.9000 100° East 479 551 39,000  Level FlightAware ADS-B
Fri 06:41:54 PM 41.8450 -77.7770 106° East 479 551 39,000  Level FlightAware ADS-B
Fri 06:42:30 PM 41.8190 -77.6760 109° East 482 555 39,000  Level FlightAware ADS-B
Fri 06:43:10 PM 41.7900 -77.5670 110° East 486 559 39,000  Level FlightAware ADS-B
Fri 06:43:56 PM 41.7550 -77.4350 110° East 486 559 39,000  Level FlightAware ADS-B
Fri 06:44:38 PM 41.7230 -77.3150 110° East 486 559 39,000  Level FlightAware ADS-B
Fri 06:45:14 PM 41.6960 -77.2170 110° East 486 559 39,000  Level FlightAware ADS-B
Fri 06:46:02 PM 41.6590 -77.0770 109° East 489 563 39,000  Level FlightAware ADS-B
Fri 06:46:42 PM 41.6280 -76.9630 110° East 495 570 39,000  Level FlightAware ADS-B
Fri 06:47:16 PM 41.6020 -76.8700 110° East 497 572 39,000  Level FlightAware ADS-B
Fri 06:47:54 PM 41.5710 -76.7550 110° East 500 575 39,000  Level FlightAware ADS-B
Fri 06:48:33 PM 41.5403 -76.6432 110° East 501 577 39,000  Level FlightAware ADS-B
Fri 06:49:04 PM 41.5152 -76.5522 110° East 502 578 39,000  Level FlightAware ADS-B
Fri 06:49:37 PM 41.4889 -76.4571 110° East 504 580 39,000 -94 Level FlightAware ADS-B
Fri 06:50:08 PM 41.4639 -76.3667 110° East 507 583 38,900 -952 Descending FlightAware ADS-B
Fri 06:50:40 PM 41.4377 -76.2731 110° East 508 585 38,000 -2,032 Descending FlightAware ADS-B
Fri 06:51:10 PM 41.4131 -76.1851 110° East 502 578 36,800 -2,557 Descending FlightAware ADS-B
Fri 06:51:41 PM 41.3887 -76.0984 111° Southeast 497 572 35,400 -2,710 Descending FlightAware ADS-B
Fri 06:52:12 PM 41.3633 -76.0079 110° East 499 574 34,000 -2,719 Descending FlightAware ADS-B
Fri 06:52:45 PM 41.3365 -75.9132 111° Southeast 500 575 32,500 -2,677 Descending FlightAware ADS-B
Fri 06:53:17 PM 41.3108 -75.8230 111° Southeast 498 573 31,100 -2,806 Descending FlightAware ADS-B
Fri 06:53:47 PM 41.2863 -75.7372 111° Southeast 499 574 29,600 -3,103 Descending FlightAware ADS-B
Fri 06:54:15 PM 41.2616 -75.6563 112° Southeast 499 574 28,100 -2,900 Descending FlightAware ADS-B
Fri 06:54:47 PM 41.2322 -75.5670 114° Southeast 491 565 26,700 -2,571 Descending FlightAware ADS-B
Fri 06:55:18 PM 41.2043 -75.4835 114° Southeast 481 554 25,400 -2,459 Descending FlightAware ADS-B
Fri 06:55:48 PM 41.1771 -75.4025 114° Southeast 473 544 24,200 -2,262 Descending FlightAware ADS-B
Fri 06:56:19 PM 41.1497 -75.3212 114° Southeast 467 537 23,100 -1,180 Descending FlightAware ADS-B
Fri 06:56:49 PM 41.1236 -75.2442 114° Southeast 458 527 23,000 -484 Descending FlightAware ADS-B
Fri 06:57:21 PM 41.0960 -75.1625 114° Southeast 456 525 22,600 -857 Descending FlightAware ADS-B
Fri 06:57:52 PM 41.0697 -75.0855 114° Southeast 457 526 22,100 -677 Descending FlightAware ADS-B
Fri 06:58:23 PM 41.0419 -75.0043 114° Southeast 457 526 21,900 -484 Descending FlightAware ADS-B
Fri 06:58:54 PM 41.0152 -74.9256 114° Southeast 456 525 21,600 -610 Descending FlightAware ADS-B
Fri 06:59:22 PM 40.9966 -74.8541 109° East 452 520 21,300 -558 Descending FlightAware ADS-B
Fri 06:59:37 PM 40.9898 -74.8116 102° East 448 516 21,200 -522 Descending FlightAware ADS-B
Fri 07:00:08 PM 40.9803 -74.7304 99° East 447 514 20,900 -492 Descending FlightAware ADS-B
Fri 07:00:38 PM 40.9717 -74.6494 98° East 445 512 20,700 -476 Descending FlightAware ADS-B
Fri 07:01:11 PM 40.9622 -74.5593 98° East 445 512 20,400 -571 Descending FlightAware ADS-B
Fri 07:01:41 PM 40.9535 -74.4791 98° East 435 501 20,100 -885 Descending FlightAware ADS-B
Fri 07:02:12 PM 40.9446 -74.3993 98° East 416 479 19,500 -968 Descending FlightAware ADS-B
Fri 07:02:43 PM 40.9364 -74.3255 98° East 392 451 19,100 -750 Descending FlightAware ADS-B
Fri 07:02:52 PM 40.9338 -74.3025 99° East 386 444 19,000 -316 Descending FlightAware ADS-B
Fri 07:03:02 PM 40.9307 -74.2797 100° East 375 432 19,000  Level FlightAware ADS-B
Fri 07:03:15 PM 40.9240 -74.2537 109° East 367 422 19,000  Level FlightAware ADS-B
Fri 07:03:22 PM 40.9180 -74.2391 119° Southeast 364 419 19,000  Level FlightAware ADS-B
Fri 07:03:23 PM 40.9171 -74.2374 125° Southeast 364 419 19,000  Level FlightAware ADS-B
Fri 07:03:29 PM 40.9109 -74.2262 126° Southeast 362 417 19,000  Level FlightAware ADS-B
Fri 07:03:44 PM 40.8937 -74.2048 137° Southeast 360 414 19,000 -231 Level FlightAware ADS-B
Fri 07:03:55 PM 40.8776 -74.1899 145° Southeast 359 413 18,900 -977 Descending FlightAware ADS-B
Fri 07:04:27 PM 40.8347 -74.1524 147° Southeast 354 407 18,300 -1,286 Descending FlightAware ADS-B
Fri 07:04:51 PM 40.8022 -74.1242 147° Southeast 352 405 17,700 -1,440 Descending FlightAware ADS-B
Fri 07:04:52 PM 40.8008 -74.1230 147° Southeast 348 400 17,700 -1,385 Level FlightAware ADS-B
Fri 07:05:04 PM 40.7840 -74.1108 151° Southeast 345 397 17,400 -1,400 Descending FlightAware ADS-B
Fri 07:05:22 PM 40.7573 -74.0944 155° Southeast 343 395 17,000 -1,472 Descending FlightAware ADS-B
Fri 07:05:57 PM 40.7074 -74.0645 156° South 337 388 16,100 -1,417 Descending FlightAware ADS-B
Fri 07:06:34 PM 40.6559 -74.0338 156° South 332 382 15,300 -1,343 Descending FlightAware ADS-B
Fri 07:07:04 PM 40.6133 -74.0079 155° Southeast 331 381 14,600 -1,406 Descending FlightAware ADS-B
Fri 07:07:38 PM 40.5665 -73.9791 155° Southeast 326 375 13,800 -1,477 Descending FlightAware ADS-B
Fri 07:08:09 PM 40.5244 -73.9531 155° Southeast 322 371 13,000 -1,525 Descending FlightAware ADS-B
Fri 07:08:37 PM 40.4869 -73.9297 155° Southeast 321 369 12,300 -1,424 Descending FlightAware ADS-B
Fri 07:09:08 PM 40.4466 -73.9044 154° Southeast 316 364 11,600 -1,355 Descending FlightAware ADS-B
Fri 07:09:39 PM 40.4060 -73.8792 155° Southeast 310 357 10,900 -1,364 Descending FlightAware ADS-B
Fri 07:09:52 PM 40.3900 -73.8655 147° Southeast 312 359 10,600 -1,385 Descending FlightAware ADS-B
Fri 07:10:18 PM 40.3625 -73.8323 137° Southeast 309 356 10,000 -1,286 Descending FlightAware ADS-B
Fri 07:10:34 PM 40.3464 -73.8126 137° Southeast 306 352 9,700 -1,235 Descending FlightAware ADS-B
Fri 07:10:52 PM 40.3286 -73.7885 134° Southeast 303 349 9,300 -1,355 Descending FlightAware ADS-B
Fri 07:11:05 PM 40.3213 -73.7675 115° Southeast 300 345 9,000 -1,385 Descending FlightAware ADS-B
Fri 07:11:18 PM 40.3180 -73.7434 100° East 296 341 8,700 -857 Descending FlightAware ADS-B
Fri 07:11:40 PM 40.3145 -73.7062 97° East 286 329 8,500 -686 Descending FlightAware ADS-B
Fri 07:11:53 PM 40.3130 -73.6830 95° East 278 320 8,300 -706 Descending FlightAware ADS-B
Fri 07:11:57 PM 40.3133 -73.6760 87° East 275 316 8,300 -522 Level FlightAware ADS-B
Fri 07:12:16 PM 40.3225 -73.6490 66° East 264 304 8,100 -667 Descending FlightAware ADS-B
Fri 07:12:24 PM 40.3298 -73.6405 42° Northeast 259 298 8,000 -429 Descending FlightAware ADS-B
Fri 07:12:30 PM 40.3357 -73.6357 32° Northeast 255 293 8,000 -286 Level FlightAware ADS-B
Fri 07:12:45 PM 40.3514 -73.6248 28° Northeast 249 287 7,900 -194 Descending FlightAware ADS-B
Fri 07:13:01 PM 40.3668 -73.6143 27° Northeast 246 283 7,900 -486 Level FlightAware ADS-B
Fri 07:13:22 PM 40.3878 -73.6000 27° Northeast 241 277 7,600 -960 Descending FlightAware ADS-B
Fri 07:13:51 PM 40.4167 -73.5807 27° Northeast 241 277 7,100 -909 Descending FlightAware ADS-B
Fri 07:14:28 PM 40.4528 -73.5567 27° Northeast 237 273 6,600 -973 Descending FlightAware ADS-B
Fri 07:15:05 PM 40.4884 -73.5317 28° Northeast 233 268 5,900 -1,014 Descending FlightAware ADS-B
Fri 07:15:39 PM 40.5190 -73.5090 29° Northeast 231 266 5,400 -857 Descending FlightAware ADS-B
Fri 07:16:08 PM 40.5430 -73.4910 30° Northeast 228 262 5,000 -536 Descending FlightAware ADS-B
Fri 07:16:35 PM 40.5710 -73.4700 30° Northeast 232 267 4,900 -118 Descending FlightAware ADS-B
Fri 07:16:59 PM 40.5940 -73.4530 29° Northeast 231 266 4,900  Level FlightAware ADS-B
Fri 07:17:29 PM 40.6210 -73.4330 29° Northeast 230 265 4,900  Level FlightAware ADS-B
Fri 07:17:43 PM 40.6350 -73.4250 23° Northeast 225 259 4,900  Level FlightAware ADS-B
Fri 07:18:11 PM 40.6650 -73.4240 North 224 258 4,900  Level FlightAware ADS-B
Fri 07:18:39 PM 40.6940 -73.4240 360° North 228 262 4,900 -107 Level FlightAware ADS-B
Fri 07:19:07 PM 40.7220 -73.4280 354° North 220 253 4,800 -300 Descending FlightAware ADS-B
Fri 07:19:19 PM 40.7320 -73.4360 329° Northwest 213 245 4,700 -1,091 Descending FlightAware ADS-B
Fri 07:19:51 PM 40.7560 -73.4640 319° Northwest 216 249 4,000 -774 Descending FlightAware ADS-B
Fri 07:20:21 PM 40.7790 -73.4910 318° Northwest 222 255 3,900 -103 Descending FlightAware ADS-B
Fri 07:20:49 PM 40.8000 -73.5150 319° Northwest 195 224 3,900 -231 Level FlightAware ADS-B
Fri 07:21:13 PM 40.8150 -73.5340 316° Northwest 183 211 3,700 -600 Descending FlightAware ADS-B
Fri 07:21:29 PM 40.8190 -73.5500 288° West 179 206 3,500 -1,000 Descending FlightAware ADS-B
Fri 07:21:55 PM 40.8130 -73.5770 254° West 180 207 3,000 -667 Descending FlightAware ADS-B
Fri 07:22:23 PM 40.8030 -73.6060 246° West 185 213 2,900 -130 Descending FlightAware ADS-B
Fri 07:22:41 PM 40.7980 -73.6230 249° West 186 214 2,900  Level FlightAware ADS-B
Fri 07:23:09 PM 40.7880 -73.6540 247° West 185 213 2,900  Level FlightAware ADS-B
Fri 07:23:21 PM 40.7820 -73.6640 232° Southwest 185 213 2,900 -450 Level FlightAware ADS-B
Fri 07:23:49 PM 40.7630 -73.6840 219° Southwest 189 217 2,600 -818 Descending FlightAware ADS-B
Fri 07:24:05 PM 40.7510 -73.6930 210° Southwest 190 219 2,300 -955 Descending FlightAware ADS-B
Fri 07:24:33 PM 40.7300 -73.7070 207° Southwest 176 203 1,900 -889 Descending FlightAware ADS-B
Fri 07:24:59 PM 40.7120 -73.7200 209° Southwest 149 171 1,500 -900 Descending FlightAware ADS-B
Fri 07:25:13 PM 40.7050 -73.7250 208° Southwest 136 157 1,300 -714 Descending FlightAware ADS-B
Fri 07:25:41 PM 40.6900 -73.7360 209° Southwest 122 140 1,000 -643 Descending FlightAware ADS-B
Fri 07:26:09 PM 40.6750 -73.7450 204° Southwest 121 139 700 -625 Descending FlightAware ADS-B
Fri 07:26:29 PM 40.6650 -73.7520 208° Southwest 123 142 500 -667 Descending FlightAware ADS-B
Fri 07:26:45 PM 40.6570 -73.7580 210° Southwest 124 143 300 -750 Descending FlightAware ADS-B
Fri 07:27:13 PM 40.6440 -73.7680 210° Southwest 118 136 -643 Descending FlightAware ADS-B
Fri 07:27:25 PM 40.6390 -73.7730 217° Southwest 121 139  Level FlightAware ADS-B
Fri 07:27:53 PM 40.6300 -73.7800 211° Southwest 51 59  Level FlightAware ADS-B
Fri 07:28:05 PM 40.6270 -73.7810 194° South 38 44  Level FlightAware ADS-B
Fri 07:28:21 PM 40.6260 -73.7830 237° Southwest 15 17  Level FlightAware ADS-B
Fri 07:28:29 PM 40.6270 -73.7840 323° Northwest 25 29  Level FlightAware ADS-B
Fri 07:28:57 PM 40.6280 -73.7830 37° Northeast 31 36  Level FlightAware ADS-B
Fri 07:29:09 PM 40.6290 -73.7820 37° Northeast 15 17  Level FlightAware ADS-B
Fri 07:29:38 PM 40.6300 -73.7810 37° Northeast 33 38  Level FlightAware ADS-B
Fri 07:30:17 PM 40.6310 -73.7800 37° Northeast 28 32  Level FlightAware ADS-B
Fri 07:30:51 PM 40.6330 -73.7800 360° North 28 32  Level FlightAware ADS-B
Fri 07:31:31 PM 40.6340 -73.7810 323° Northwest 29 33  Level FlightAware ADS-B
Fri 07:31:59 PM 40.6350 -73.7820 323° Northwest 9 10  Level FlightAware ADS-B
Fri 07:33:07 PM 40.6350 -73.7830 270° West 15 17  Level FlightAware ADS-B
Fri 07:33:45 PM 40.6360 -73.7850 303° West 17 20  Level FlightAware ADS-B
Fri 07:34:11 PM 40.6370 -73.7870 303° West 15 17  Level FlightAware ADS-B
Fri 07:35:35 PM 40.6380 -73.7890 303° West 32 37  Level FlightAware ADS-B
Fri 07:36:03 PM 40.6390 -73.7920 294° West 18 21  Level FlightAware ADS-B
Fri 07:36:39 PM 40.6400 -73.7940 303° West 20 23  Level FlightAware ADS-B
Fri 07:39:39 PM 40.6410 -73.7950 323° Northwest 27 31  Level FlightAware ADS-B
Fri 07:39:49 PM 40.6410 -73.7960 270° West 17 20  Level FlightAware ADS-B
Fri 07:40:19 PM 40.6420 -73.7980 303° West 19 22  Level FlightAware ADS-B
Fri 07:42:03 PM 40.6450 -73.8030 308° West 20 23  Level FlightAware ADS-B

Login

Don't have an account? Register now (free) for customized features, flight alerts, and more!